Time;durP1;ratioP1;P1;durP2;ratioP2;P2;SDS_P1;SDS_P2;PMS_P1;PMS_P2;Temp;Humidity;BMP_temperature;BMP_pressure;BME280_temperature;BME280_humidity;BME280_pressure;Samples;Min_cycle;Max_cycle;Signal;HPM_P1;HPM_P2
2024/02/24 00:01:36;;;;;;;5.50;1.65;;;2.20;99.90;;;;;;5051262;28;20040;-72
2024/02/24 00:04:02;;;;;;;3.55;1.35;;;2.50;99.90;;;;;;5045058;28;20459;-72
2024/02/24 00:06:28;;;;;;;2.92;1.30;;;2.70;99.90;;;;;;5041799;28;20025;-72
2024/02/24 00:08:53;;;;;;;8.35;1.60;;;2.80;99.90;;;;;;5032282;28;20098;-72
2024/02/24 00:11:19;;;;;;;2.03;0.90;;;3.00;99.90;;;;;;5051156;28;20064;-72
2024/02/24 00:13:45;;;;;;;3.33;1.33;;;3.10;99.90;;;;;;5050903;28;20021;-71
2024/02/24 00:16:13;;;;;;;2.63;1.38;;;3.30;99.90;;;;;;5054499;28;20033;-72
2024/02/24 00:18:39;;;;;;;3.63;1.25;;;3.40;99.90;;;;;;5033650;28;20403;-72
2024/02/24 00:21:05;;;;;;;3.92;1.45;;;3.60;99.90;;;;;;5043840;28;20021;-72
2024/02/24 00:23:32;;;;;;;2.25;1.33;;;3.70;99.90;;;;;;5027890;28;20152;-71
2024/02/24 00:25:57;;;;;;;3.88;1.58;;;3.80;99.90;;;;;;5031757;28;20443;-72
2024/02/24 00:28:23;;;;;;;3.75;1.35;;;4.00;99.90;;;;;;5050737;28;20029;-72
2024/02/24 00:30:49;;;;;;;4.55;1.10;;;4.00;99.90;;;;;;5032320;28;20056;-72
2024/02/24 00:33:15;;;;;;;7.65;1.40;;;4.10;99.90;;;;;;5032473;28;20179;-72
2024/02/24 00:35:41;;;;;;;6.40;1.10;;;4.10;99.90;;;;;;5050527;28;20119;-72
2024/02/24 00:38:07;;;;;;;3.17;0.93;;;4.20;99.90;;;;;;5064104;28;20033;-72
2024/02/24 00:40:33;;;;;;;4.47;1.25;;;4.10;99.90;;;;;;5047607;28;20025;-73
2024/02/24 00:42:58;;;;;;;9.15;1.70;;;4.10;99.90;;;;;;5050296;28;20017;-72
2024/02/24 00:45:24;;;;;;;2.60;1.30;;;4.00;99.90;;;;;;5032455;28;20029;-73
2024/02/24 00:47:51;;;;;;;5.07;1.15;;;4.00;99.90;;;;;;5032994;28;20036;-72
2024/02/24 00:50:16;;;;;;;4.95;1.25;;;4.00;99.90;;;;;;5045972;28;20031;-72
2024/02/24 00:52:42;;;;;;;4.88;1.30;;;4.00;99.90;;;;;;5050597;28;20033;-72
2024/02/24 00:55:09;;;;;;;3.17;1.30;;;4.00;99.90;;;;;;5057645;28;20024;-72
2024/02/24 00:57:35;;;;;;;3.67;1.02;;;4.00;99.90;;;;;;5054437;28;20439;-72
2024/02/24 01:00:02;;;;;;;2.42;1.35;;;4.00;99.90;;;;;;5048859;28;20025;-72
2024/02/24 01:02:28;;;;;;;6.85;2.88;;;3.90;99.90;;;;;;5032990;28;20387;-72
2024/02/24 01:04:54;;;;;;;5.78;1.70;;;3.80;99.90;;;;;;5048997;28;20028;-72
2024/02/24 01:07:21;;;;;;;8.60;2.65;;;3.80;99.90;;;;;;5032982;28;20446;-72
2024/02/24 01:09:46;;;;;;;5.05;1.90;;;3.70;99.90;;;;;;5050859;28;20028;-72
2024/02/24 01:12:12;;;;;;;3.78;1.55;;;3.70;99.90;;;;;;5049798;28;20024;-72
2024/02/24 01:14:38;;;;;;;4.78;1.73;;;3.50;99.90;;;;;;5050060;28;20029;-72
2024/02/24 01:17:04;;;;;;;3.92;2.33;;;3.40;99.90;;;;;;5049606;28;20028;-72
2024/02/24 01:19:29;;;;;;;5.55;2.40;;;3.20;99.90;;;;;;5032610;28;20021;-72
2024/02/24 01:21:55;;;;;;;7.22;2.47;;;3.10;99.90;;;;;;5048924;28;20503;-72
2024/02/24 01:24:22;;;;;;;5.28;2.20;;;3.00;99.90;;;;;;5049987;28;20028;-72
2024/02/24 01:26:48;;;;;;;5.13;2.05;;;2.90;99.90;;;;;;5034662;28;20063;-72
2024/02/24 01:29:14;;;;;;;4.68;1.50;;;2.90;99.90;;;;;;5055232;28;20048;-72
2024/02/24 01:31:40;;;;;;;8.32;1.67;;;2.90;99.90;;;;;;5034023;28;20029;-72
2024/02/24 01:34:05;;;;;;;4.82;1.17;;;3.00;99.90;;;;;;5050409;28;20040;-72
2024/02/24 01:36:31;;;;;;;3.33;1.40;;;3.10;99.90;;;;;;5049920;28;20025;-72
2024/02/24 01:38:57;;;;;;;2.38;1.00;;;3.30;99.90;;;;;;5048900;28;20021;-71
2024/02/24 01:41:22;;;;;;;5.45;1.20;;;3.50;99.90;;;;;;5047038;28;20017;-72
2024/02/24 01:43:48;;;;;;;3.42;1.23;;;3.60;99.90;;;;;;5049855;28;20053;-72
2024/02/24 01:46:15;;;;;;;5.50;1.42;;;3.70;99.90;;;;;;5048355;28;20029;-72
2024/02/24 01:48:40;;;;;;;3.60;1.20;;;3.70;99.90;;;;;;5046842;28;20025;-72
2024/02/24 01:51:10;;;;;;;4.40;1.13;;;3.90;99.90;;;;;;5045701;28;20040;-72
2024/02/24 01:53:36;;;;;;;2.80;1.10;;;4.10;99.90;;;;;;5031815;28;20449;-72
2024/02/24 01:56:07;;;;;;;2.75;1.23;;;4.30;99.90;;;;;;5051607;28;20056;-72
2024/02/24 01:58:36;;;;;;;3.38;1.10;;;4.30;99.90;;;;;;5032207;28;20024;-72
2024/02/24 02:01:03;;;;;;;3.55;1.40;;;4.40;99.90;;;;;;5037245;28;20060;-73
2024/02/24 02:03:29;;;;;;;2.97;1.42;;;4.50;99.90;;;;;;5050161;28;20022;-73
2024/02/24 02:05:55;;;;;;;2.42;1.10;;;4.60;99.90;;;;;;5030329;28;20051;-72
2024/02/24 02:08:21;;;;;;;3.08;1.20;;;4.70;99.90;;;;;;5056212;28;20081;-72
2024/02/24 02:10:48;;;;;;;4.97;1.35;;;4.80;99.90;;;;;;5049235;28;20110;-72
2024/02/24 02:13:15;;;;;;;4.70;1.27;;;4.90;99.90;;;;;;5048567;28;20033;-73
2024/02/24 02:15:42;;;;;;;3.97;1.13;;;4.90;99.90;;;;;;5031448;28;20033;-73
2024/02/24 02:18:08;;;;;;;4.80;1.30;;;4.80;99.90;;;;;;5038148;28;20471;-74
2024/02/24 02:20:33;;;;;;;2.97;1.52;;;4.80;99.90;;;;;;5053426;28;20024;-73
2024/02/24 02:23:01;;;;;;;4.13;1.30;;;4.90;99.90;;;;;;5023861;28;20057;-73
2024/02/24 02:25:27;;;;;;;6.38;1.48;;;4.90;99.90;;;;;;5035688;28;20028;-73
2024/02/24 02:27:53;;;;;;;2.50;1.13;;;4.80;99.90;;;;;;5051933;28;20368;-72
2024/02/24 02:30:18;;;;;;;3.42;1.40;;;4.80;99.90;;;;;;5052041;28;20047;-73
2024/02/24 02:32:45;;;;;;;3.70;1.00;;;4.70;99.90;;;;;;5053544;28;20021;-73
2024/02/24 02:35:11;;;;;;;4.85;1.17;;;4.60;99.90;;;;;;5034262;28;20481;-73
2024/02/24 02:37:37;;;;;;;2.33;0.80;;;4.60;99.90;;;;;;5053352;28;20055;-73
2024/02/24 02:40:03;;;;;;;1.20;0.88;;;4.50;99.90;;;;;;5051566;28;20025;-74
2024/02/24 02:42:29;;;;;;;2.33;0.90;;;4.40;99.90;;;;;;5034867;28;20049;-73
2024/02/24 02:44:55;;;;;;;3.40;0.60;;;4.30;99.90;;;;;;5052252;28;20055;-73
2024/02/24 02:47:20;;;;;;;1.40;1.00;;;4.30;99.90;;;;;;5034938;28;20116;-73
2024/02/24 02:49:47;;;;;;;1.65;0.57;;;4.30;99.90;;;;;;5052592;28;20063;-73
2024/02/24 02:52:14;;;;;;;2.78;0.60;;;4.20;99.90;;;;;;5051775;28;20044;-73
2024/02/24 02:54:39;;;;;;;1.15;0.52;;;4.20;99.90;;;;;;5052763;28;20028;-73
2024/02/24 02:57:05;;;;;;;3.20;0.70;;;4.10;99.90;;;;;;5034066;28;20025;-72
2024/02/24 02:59:34;;;;;;;1.85;0.50;;;4.10;99.90;;;;;;5034537;28;20076;-73
2024/02/24 03:02:00;;;;;;;2.10;0.60;;;4.00;99.90;;;;;;5061196;28;20021;-73
2024/02/24 03:04:26;;;;;;;3.72;1.02;;;4.10;99.90;;;;;;5038393;28;20021;-72
2024/02/24 03:06:53;;;;;;;0.70;0.40;;;4.00;99.90;;;;;;5059093;28;20056;-72
2024/02/24 03:09:18;;;;;;;3.42;0.70;;;4.00;99.90;;;;;;5033359;28;20052;-73
2024/02/24 03:11:45;;;;;;;2.25;0.60;;;4.00;99.90;;;;;;5052584;28;20033;-73
2024/02/24 03:14:11;;;;;;;3.10;0.55;;;4.00;99.90;;;;;;5033476;28;20204;-72
2024/02/24 03:16:37;;;;;;;0.60;0.60;;;4.00;99.90;;;;;;5052583;28;20623;-72
2024/02/24 03:19:03;;;;;;;1.50;0.82;;;4.10;99.90;;;;;;5051585;28;20025;-72
2024/02/24 03:21:32;;;;;;;0.63;0.40;;;4.10;99.90;;;;;;5051841;28;20025;-73
2024/02/24 03:23:58;;;;;;;1.60;0.70;;;4.20;99.90;;;;;;5045755;28;20029;-73
2024/02/24 03:26:24;;;;;;;3.10;0.60;;;4.20;99.90;;;;;;5059159;28;20036;-72
2024/02/24 03:28:50;;;;;;;2.83;0.38;;;4.10;99.90;;;;;;5052575;28;20047;-72
2024/02/24 03:31:16;;;;;;;2.80;0.90;;;4.10;99.90;;;;;;5070186;28;20182;-71
2024/02/24 03:33:42;;;;;;;1.45;0.60;;;4.00;99.90;;;;;;5061664;28;20503;-73
2024/02/24 03:36:16;;;;;;;4.13;0.60;;;4.00;99.90;;;;;;5033368;28;20025;-72
2024/02/24 03:38:42;;;;;;;3.25;0.50;;;4.00;99.90;;;;;;5051693;28;20110;-72
2024/02/24 03:41:09;;;;;;;1.23;0.50;;;4.00;99.90;;;;;;5049182;28;20052;-73
2024/02/24 03:43:35;;;;;;;1.27;0.50;;;4.00;99.90;;;;;;5058693;28;20033;-72
2024/02/24 03:46:03;;;;;;;0.55;0.52;;;3.90;99.90;;;;;;5048715;28;20476;-73
2024/02/24 03:48:32;;;;;;;0.90;0.30;;;3.90;99.90;;;;;;5049982;28;20031;-74
2024/02/24 03:50:59;;;;;;;0.85;0.50;;;3.90;99.90;;;;;;5051390;28;20028;-72
2024/02/24 03:53:25;;;;;;;1.70;0.50;;;3.90;99.90;;;;;;5059079;28;20080;-72
2024/02/24 03:55:54;;;;;;;1.10;0.40;;;3.90;99.90;;;;;;5050197;28;20040;-71
2024/02/24 03:58:21;;;;;;;1.58;0.60;;;4.00;99.90;;;;;;5042556;28;20017;-72
2024/02/24 04:00:47;;;;;;;0.60;0.32;;;3.90;99.90;;;;;;5051535;28;20017;-73
2024/02/24 04:03:13;;;;;;;1.13;0.50;;;3.90;99.90;;;;;;5051369;28;20017;-71
2024/02/24 04:05:42;;;;;;;0.57;0.50;;;3.80;99.90;;;;;;5057571;28;20036;-72
2024/02/24 04:08:07;;;;;;;1.23;0.30;;;3.70;99.90;;;;;;5060397;28;20032;-72
2024/02/24 04:10:34;;;;;;;3.88;0.60;;;3.70;99.90;;;;;;5061483;28;20052;-71
2024/02/24 04:13:00;;;;;;;0.90;0.40;;;3.70;99.90;;;;;;5058384;28;20025;-73
2024/02/24 04:15:27;;;;;;;0.93;0.40;;;3.70;99.90;;;;;;5059147;28;20040;-74
2024/02/24 04:17:53;;;;;;;0.98;0.40;;;3.60;99.90;;;;;;5054506;28;20029;-71
2024/02/24 04:20:20;;;;;;;1.08;0.43;;;3.60;99.90;;;;;;5054116;28;20020;-72
2024/02/24 04:22:45;;;;;;;3.00;0.50;;;3.60;99.90;;;;;;5047301;28;20093;-72
2024/02/24 04:25:11;;;;;;;1.30;0.82;;;3.60;99.90;;;;;;5054955;28;20099;-73
2024/02/24 04:27:38;;;;;;;1.52;0.60;;;3.70;99.90;;;;;;5051139;28;20036;-73
2024/02/24 04:30:04;;;;;;;4.35;0.85;;;3.70;99.90;;;;;;5032366;28;20456;-71
2024/02/24 04:32:30;;;;;;;1.27;0.70;;;3.70;99.90;;;;;;5013780;28;20021;-73
2024/02/24 04:34:56;;;;;;;2.60;0.60;;;3.70;99.90;;;;;;5032705;28;20076;-73
2024/02/24 04:37:23;;;;;;;0.80;0.68;;;3.70;99.90;;;;;;5032157;28;20112;-74
2024/02/24 04:39:48;;;;;;;1.92;0.77;;;3.70;99.90;;;;;;5016738;28;20029;-73
2024/02/24 04:42:14;;;;;;;4.57;0.68;;;3.80;99.90;;;;;;5030160;28;20389;-73
2024/02/24 04:44:40;;;;;;;1.05;0.60;;;3.80;99.90;;;;;;5020778;28;20076;-72
2024/02/24 04:47:06;;;;;;;1.27;0.40;;;3.80;99.90;;;;;;5029885;28;20022;-73
2024/02/24 04:49:32;;;;;;;0.60;0.47;;;3.90;99.90;;;;;;5029737;28;20041;-72
2024/02/24 04:51:58;;;;;;;2.47;0.90;;;3.90;99.90;;;;;;5011568;28;20028;-72
2024/02/24 04:54:24;;;;;;;1.85;0.40;;;3.80;99.90;;;;;;5029684;28;20025;-73
2024/02/24 04:56:50;;;;;;;1.02;0.57;;;3.80;99.90;;;;;;5012592;28;20021;-73
2024/02/24 04:59:16;;;;;;;1.45;0.40;;;3.80;99.90;;;;;;5032397;28;20030;-73
2024/02/24 05:01:42;;;;;;;2.13;0.70;;;3.80;99.90;;;;;;5034883;28;20022;-72
2024/02/24 05:04:08;;;;;;;2.25;0.50;;;3.80;99.90;;;;;;5029005;28;20037;-72
2024/02/24 05:06:34;;;;;;;1.25;0.52;;;3.80;99.90;;;;;;5030514;28;20083;-72
2024/02/24 05:09:00;;;;;;;0.73;0.47;;;3.70;99.90;;;;;;5019050;28;20397;-72
2024/02/24 05:11:25;;;;;;;1.83;0.30;;;3.70;99.90;;;;;;5037184;28;20026;-72
2024/02/24 05:13:53;;;;;;;1.98;0.60;;;3.70;99.90;;;;;;5029291;28;20378;-72
2024/02/24 05:16:18;;;;;;;1.38;0.60;;;3.70;99.90;;;;;;5028911;28;20018;-73
2024/02/24 05:18:44;;;;;;;1.27;0.60;;;3.70;99.90;;;;;;5037709;28;20461;-73
2024/02/24 05:21:20;;;;;;;0.50;0.40;;;3.70;99.90;;;;;;5035673;28;20061;-72
2024/02/24 05:23:46;;;;;;;0.98;0.47;;;3.80;99.90;;;;;;5032605;28;20036;-72
2024/02/24 05:26:22;;;;;;;1.08;0.60;;;3.70;99.90;;;;;;5028852;28;20030;-73
2024/02/24 05:28:48;;;;;;;1.45;0.55;;;3.80;99.90;;;;;;5034290;28;20041;-73
2024/02/24 05:31:15;;;;;;;1.15;0.30;;;3.70;99.90;;;;;;5032622;28;20032;-73
2024/02/24 05:33:40;;;;;;;0.63;0.40;;;3.70;99.90;;;;;;5032384;28;20485;-73
2024/02/24 05:36:07;;;;;;;1.30;0.57;;;3.70;99.90;;;;;;5033473;28;20086;-73
2024/02/24 05:38:36;;;;;;;1.58;0.60;;;3.70;99.90;;;;;;5049929;28;20049;-74
2024/02/24 05:41:02;;;;;;;3.30;1.00;;;3.70;99.90;;;;;;5030695;28;20471;-72
2024/02/24 05:43:28;;;;;;;1.73;0.70;;;3.70;99.90;;;;;;5031816;28;20025;-73
2024/02/24 05:46:06;;;;;;;0.60;0.50;;;3.70;99.90;;;;;;5049943;28;20102;-73
2024/02/24 05:48:35;;;;;;;2.08;0.60;;;3.70;99.90;;;;;;5032030;28;20032;-73
2024/02/24 05:51:04;;;;;;;3.27;0.90;;;3.80;99.90;;;;;;5049947;28;20017;-74
2024/02/24 05:53:30;;;;;;;2.58;0.60;;;3.80;99.90;;;;;;5049665;28;20259;-73
2024/02/24 05:55:58;;;;;;;1.02;0.52;;;3.80;99.90;;;;;;5048773;28;20442;-73
2024/02/24 05:58:24;;;;;;;3.47;0.95;;;3.80;99.90;;;;;;5049499;28;20025;-72
2024/02/24 06:00:51;;;;;;;2.42;1.20;;;3.80;99.90;;;;;;5030517;28;20028;-72
2024/02/24 06:03:18;;;;;;;2.90;1.15;;;3.80;99.90;;;;;;5052409;28;20396;-73
2024/02/24 06:05:45;;;;;;;1.35;0.70;;;3.90;99.90;;;;;;5035239;28;20021;-72
2024/02/24 06:08:12;;;;;;;2.88;0.90;;;3.90;99.90;;;;;;5060357;28;20660;-72
2024/02/24 06:10:38;;;;;;;2.65;1.13;;;4.00;99.90;;;;;;5052527;28;20112;-72
2024/02/24 06:13:05;;;;;;;1.92;1.00;;;4.00;99.90;;;;;;5034449;28;20108;-72
2024/02/24 06:15:31;;;;;;;3.80;1.02;;;4.10;99.90;;;;;;5052552;28;20021;-72
2024/02/24 06:17:57;;;;;;;2.63;1.40;;;4.10;99.90;;;;;;5051566;28;20032;-72
2024/02/24 06:20:23;;;;;;;3.47;1.65;;;4.10;99.90;;;;;;5000738;28;20045;-72
2024/02/24 06:22:49;;;;;;;1.92;1.00;;;4.20;99.90;;;;;;5034938;28;20036;-72
2024/02/24 06:25:14;;;;;;;3.60;1.30;;;4.20;99.90;;;;;;5012306;28;20029;-72
2024/02/24 06:27:40;;;;;;;3.40;0.90;;;4.20;99.90;;;;;;5034336;28;20399;-72
2024/02/24 06:30:07;;;;;;;4.10;1.08;;;4.30;99.90;;;;;;5044585;28;20044;-72
2024/02/24 06:32:33;;;;;;;2.78;1.40;;;4.30;99.90;;;;;;5049716;28;20029;-72
2024/02/24 06:34:59;;;;;;;2.83;1.35;;;4.30;99.90;;;;;;5050842;28;20040;-73
2024/02/24 06:37:24;;;;;;;5.30;1.50;;;4.30;99.90;;;;;;5052272;28;20484;-73
2024/02/24 06:39:50;;;;;;;3.10;1.20;;;4.30;99.90;;;;;;5052191;28;20102;-75
2024/02/24 06:42:17;;;;;;;3.35;1.52;;;4.20;99.90;;;;;;5038145;28;20025;-75
2024/02/24 06:44:42;;;;;;;3.00;1.30;;;4.20;99.90;;;;;;5028504;28;20091;-73
2024/02/24 06:47:08;;;;;;;2.80;1.40;;;4.20;99.90;;;;;;5047570;28;20174;-73
2024/02/24 06:49:34;;;;;;;3.80;1.33;;;4.20;99.90;;;;;;5046377;28;20453;-72
2024/02/24 06:52:00;;;;;;;4.53;1.50;;;4.30;99.90;;;;;;5049784;28;20035;-72
2024/02/24 06:54:26;;;;;;;3.45;1.20;;;4.30;99.90;;;;;;5049103;28;20392;-73
2024/02/24 06:56:52;;;;;;;2.88;1.65;;;4.30;99.90;;;;;;5051706;28;20029;-72
2024/02/24 06:59:17;;;;;;;7.07;1.60;;;4.30;99.90;;;;;;5047431;28;20041;-73
2024/02/24 07:01:43;;;;;;;4.80;1.30;;;4.30;99.90;;;;;;5051554;28;20024;-73
2024/02/24 07:04:09;;;;;;;4.65;1.20;;;4.40;99.90;;;;;;5049242;28;20039;-72
2024/02/24 07:06:35;;;;;;;2.95;1.20;;;4.40;99.90;;;;;;5056948;28;20028;-72
2024/02/24 07:09:00;;;;;;;4.82;1.50;;;4.40;99.90;;;;;;5057065;28;20033;-72
2024/02/24 07:11:26;;;;;;;2.03;1.25;;;4.40;99.90;;;;;;5035307;28;20055;-72
2024/02/24 07:13:52;;;;;;;3.05;1.65;;;4.40;99.90;;;;;;5003709;28;20041;-72
2024/02/24 07:16:18;;;;;;;6.13;1.40;;;4.40;99.90;;;;;;5029243;28;20495;-72
2024/02/24 07:18:43;;;;;;;5.35;1.70;;;4.40;99.90;;;;;;5027411;28;20396;-72
2024/02/24 07:21:09;;;;;;;5.25;1.35;;;4.40;99.90;;;;;;5015007;28;20025;-72
2024/02/24 07:23:34;;;;;;;2.85;0.95;;;4.40;99.90;;;;;;5037879;28;20029;-72
2024/02/24 07:26:01;;;;;;;2.42;0.70;;;4.50;99.90;;;;;;5035362;28;20554;-72
2024/02/24 07:28:28;;;;;;;2.33;0.77;;;4.50;99.90;;;;;;5039847;28;20029;-72
2024/02/24 07:30:54;;;;;;;1.55;0.77;;;4.60;99.90;;;;;;5013352;28;20117;-72
2024/02/24 07:33:20;;;;;;;0.93;0.65;;;4.60;99.90;;;;;;5036333;28;20029;-72
2024/02/24 07:35:46;;;;;;;1.77;0.43;;;4.70;99.90;;;;;;5022980;28;20120;-72
2024/02/24 07:38:12;;;;;;;3.05;0.40;;;4.70;99.90;;;;;;5030587;28;20109;-72
2024/02/24 07:40:40;;;;;;;1.42;0.40;;;4.70;99.90;;;;;;5030936;28;20033;-73
2024/02/24 07:43:05;;;;;;;0.95;0.60;;;4.70;99.90;;;;;;5023175;28;20527;-72
2024/02/24 07:45:31;;;;;;;1.15;0.30;;;4.80;99.90;;;;;;5028405;28;20057;-73
2024/02/24 07:47:57;;;;;;;1.35;0.50;;;4.90;99.90;;;;;;5028374;28;20021;-71
2024/02/24 07:50:23;;;;;;;0.70;0.38;;;5.10;99.90;;;;;;5043975;28;20024;-71
2024/02/24 07:52:50;;;;;;;0.50;0.30;;;5.10;99.90;;;;;;5050103;28;20029;-71
2024/02/24 07:55:16;;;;;;;0.43;0.20;;;5.10;99.90;;;;;;5057779;28;20478;-72
2024/02/24 07:57:42;;;;;;;0.95;0.43;;;5.30;99.90;;;;;;5052722;28;20040;-72
2024/02/24 08:00:09;;;;;;;2.67;0.40;;;5.30;99.90;;;;;;5048550;28;20030;-71
2024/02/24 08:02:36;;;;;;;0.43;0.28;;;5.30;99.90;;;;;;5053889;28;20025;-71
2024/02/24 08:05:05;;;;;;;0.47;0.30;;;5.40;99.90;;;;;;5054987;28;20033;-71
2024/02/24 08:07:31;;;;;;;1.95;0.70;;;5.40;99.90;;;;;;5056812;28;20024;-71
2024/02/24 08:09:57;;;;;;;0.40;0.30;;;5.50;99.90;;;;;;5054349;28;20031;-71
2024/02/24 08:12:23;;;;;;;0.30;0.30;;;5.50;99.90;;;;;;5056703;28;20111;-71
2024/02/24 08:14:49;;;;;;;0.55;0.30;;;5.50;99.90;;;;;;5048363;28;20025;-71
2024/02/24 08:17:15;;;;;;;1.58;0.30;;;5.50;99.90;;;;;;5048464;28;20028;-71
2024/02/24 08:19:42;;;;;;;0.65;0.20;;;5.40;99.90;;;;;;5050086;28;20112;-71
2024/02/24 08:22:07;;;;;;;2.25;0.30;;;5.40;99.90;;;;;;5048255;28;20029;-71
2024/02/24 08:24:33;;;;;;;0.30;0.25;;;5.40;99.90;;;;;;5049087;28;20017;-71
2024/02/24 08:26:59;;;;;;;1.17;0.50;;;5.40;99.90;;;;;;5039304;28;20095;-71
2024/02/24 08:29:26;;;;;;;1.65;0.30;;;5.30;99.90;;;;;;5049035;28;20090;-70
2024/02/24 08:31:52;;;;;;;2.25;0.40;;;5.30;99.90;;;;;;5042901;28;20452;-70
2024/02/24 08:34:18;;;;;;;0.55;0.30;;;5.30;99.90;;;;;;5049553;28;20112;-71
2024/02/24 08:36:46;;;;;;;0.45;0.30;;;5.30;99.90;;;;;;5048190;28;20033;-73
2024/02/24 08:39:12;;;;;;;2.00;0.30;;;5.30;99.90;;;;;;5056890;28;20035;-71
2024/02/24 08:41:39;;;;;;;0.40;0.13;;;5.30;99.90;;;;;;5049541;28;20029;-70
2024/02/24 08:44:05;;;;;;;0.73;0.40;;;5.40;99.90;;;;;;5044093;28;20044;-71
2024/02/24 08:46:31;;;;;;;2.42;0.38;;;5.60;99.90;;;;;;5036354;28;20569;-70
2024/02/24 08:48:58;;;;;;;0.98;0.40;;;5.60;99.90;;;;;;5048256;28;20068;-71
2024/02/24 08:51:25;;;;;;;0.57;0.40;;;5.70;99.90;;;;;;5026268;28;20057;-74
2024/02/24 08:53:51;;;;;;;0.22;0.22;;;5.80;99.90;;;;;;5049090;28;20029;-75
2024/02/24 08:56:23;;;;;;;0.30;0.25;;;5.80;99.90;;;;;;5048961;28;20024;-74
2024/02/24 08:58:49;;;;;;;1.23;0.40;;;5.90;99.90;;;;;;5050082;28;20028;-75
2024/02/24 09:01:16;;;;;;;1.23;0.40;;;6.00;99.90;;;;;;5030637;28;20070;-75
2024/02/24 09:03:42;;;;;;;0.68;0.40;;;6.10;99.90;;;;;;5031429;28;20060;-74
2024/02/24 09:06:08;;;;;;;0.50;0.38;;;6.10;99.90;;;;;;5048965;28;20567;-75
2024/02/24 09:08:34;;;;;;;0.60;0.30;;;6.20;99.90;;;;;;5054760;28;20031;-72
2024/02/24 09:11:00;;;;;;;0.40;0.40;;;;;;;;;;5048930;28;20108;-74
2024/02/24 09:13:26;;;;;;;0.40;0.30;;;;;;;;;;5015212;28;20041;-73
2024/02/24 09:15:52;;;;;;;1.38;0.43;;;6.80;99.90;;;;;;5048962;28;20033;-75
2024/02/24 09:18:20;;;;;;;0.32;0.15;;;6.70;99.90;;;;;;5051891;28;20404;-72
2024/02/24 09:20:48;;;;;;;0.30;0.10;;;6.80;99.90;;;;;;5049128;28;20021;-74
2024/02/24 09:23:13;;;;;;;0.68;0.32;;;6.90;99.90;;;;;;5031336;28;20086;-72
2024/02/24 09:25:39;;;;;;;0.95;0.57;;;7.00;99.90;;;;;;5049425;28;20029;-72
2024/02/24 09:28:06;;;;;;;2.35;0.20;;;7.10;99.90;;;;;;5014893;28;20116;-72
2024/02/24 09:30:32;;;;;;;0.60;0.30;;;7.30;99.90;;;;;;5049181;28;20123;-73
2024/02/24 09:32:58;;;;;;;1.90;0.90;;;;;;;;;;5050488;28;21558;-72
2024/02/24 09:35:24;;;;;;;1.13;0.40;;;7.50;99.90;;;;;;5047360;28;20025;-73
2024/02/24 09:37:49;;;;;;;1.23;0.30;;;7.70;99.90;;;;;;5053929;28;20066;-74
2024/02/24 09:40:16;;;;;;;1.23;0.30;;;7.80;99.90;;;;;;5053054;28;20475;-75
2024/02/24 09:42:42;;;;;;;0.63;0.30;;;8.00;99.90;;;;;;5037751;28;20427;-75
2024/02/24 09:45:12;;;;;;;0.47;0.30;;;8.20;99.90;;;;;;5053746;28;20067;-71
2024/02/24 09:47:41;;;;;;;0.57;0.40;;;8.50;99.90;;;;;;5057017;28;20021;-74
2024/02/24 09:50:07;;;;;;;0.93;0.40;;;8.70;99.90;;;;;;5038556;28;20028;-72
2024/02/24 09:52:34;;;;;;;0.40;0.40;;;8.70;99.90;;;;;;5059762;28;20037;-72
2024/02/24 09:55:03;;;;;;;1.38;0.35;;;8.80;99.90;;;;;;5063187;28;20027;-72
2024/02/24 09:57:32;;;;;;;0.93;0.55;;;8.90;99.90;;;;;;5068194;28;20021;-72
2024/02/24 10:00:00;;;;;;;5.88;0.40;;;9.20;99.90;;;;;;5050436;28;20078;-75
2024/02/24 10:02:26;;;;;;;0.65;0.30;;;9.40;99.90;;;;;;5053205;28;20052;-74
2024/02/24 10:04:53;;;;;;;0.75;0.30;;;9.40;99.90;;;;;;5046555;28;20035;-73
2024/02/24 10:07:20;;;;;;;2.90;0.40;;;9.30;99.90;;;;;;5067184;28;20028;-74
2024/02/24 10:09:47;;;;;;;0.40;0.38;;;9.30;99.90;;;;;;5050565;28;20025;-74
2024/02/24 10:12:12;;;;;;;0.45;0.22;;;9.40;99.90;;;;;;5046425;28;20116;-74
2024/02/24 10:14:38;;;;;;;1.42;0.30;;;9.30;99.90;;;;;;5036912;28;20104;-72
2024/02/24 10:17:05;;;;;;;1.98;0.30;;;9.20;99.90;;;;;;5055879;28;20135;-76
2024/02/24 10:19:31;;;;;;;0.35;0.30;;;9.20;99.90;;;;;;5038152;28;20021;-75
2024/02/24 10:22:00;;;;;;;0.30;0.20;;;9.20;99.90;;;;;;5055663;28;20009;-74
2024/02/24 10:24:27;;;;;;;0.45;0.10;;;9.20;99.90;;;;;;5055399;28;20040;-75
2024/02/24 10:26:53;;;;;;;0.47;0.10;;;9.40;99.90;;;;;;5048765;28;20025;-76
2024/02/24 10:29:31;;;;;;;1.10;0.30;;;9.40;99.90;;;;;;4978096;28;20596;-75
2024/02/24 10:32:00;;;;;;;0.52;0.10;;;9.50;99.90;;;;;;4971610;28;20043;-76
2024/02/24 10:34:29;;;;;;;0.98;0.30;;;9.50;99.90;;;;;;4962521;28;20070;-73
2024/02/24 10:37:00;;;;;;;1.35;0.38;;;9.60;99.90;;;;;;4974701;28;20089;-74
2024/02/24 10:39:26;;;;;;;0.55;0.15;;;9.70;99.90;;;;;;4972735;28;20042;-75
2024/02/24 10:41:53;;;;;;;0.40;0.22;;;9.80;99.90;;;;;;4967367;28;20031;-74
2024/02/24 10:44:20;;;;;;;0.45;0.30;;;9.90;98.60;;;;;;4961421;28;20109;-76
2024/02/24 10:46:48;;;;;;;0.43;0.20;;;9.90;98.30;;;;;;4975360;28;20090;-75
2024/02/24 10:49:13;;;;;;;0.40;0.10;;;9.90;97.70;;;;;;4965419;28;20041;-76
2024/02/24 10:51:41;;;;;;;1.17;0.25;;;9.80;98.10;;;;;;4962129;28;20057;-76
2024/02/24 10:54:15;;;;;;;0.50;0.30;;;9.90;98.50;;;;;;4966969;28;20038;-74
2024/02/24 10:56:40;;;;;;;0.88;0.13;;;9.80;98.00;;;;;;4977332;28;20019;-76
2024/02/24 10:59:11;;;;;;;0.35;0.20;;;9.80;98.10;;;;;;4988638;28;20027;-74
2024/02/24 11:01:47;;;;;;;1.05;0.40;;;9.70;98.40;;;;;;5053601;28;20024;-76
2024/02/24 11:04:15;;;;;;;2.33;0.40;;;9.60;98.10;;;;;;5012351;28;20042;-76
2024/02/24 11:06:44;;;;;;;0.63;0.28;;;9.60;97.80;;;;;;5021000;28;20026;-75
2024/02/24 11:09:25;;;;;;;1.27;0.20;;;9.60;97.70;;;;;;5041081;28;20025;-76
2024/02/24 11:11:51;;;;;;;0.60;0.50;;;9.70;97.60;;;;;;5032946;28;20220;-76
2024/02/24 11:14:20;;;;;;;0.50;0.20;;;9.80;97.70;;;;;;5014031;28;20179;-75
2024/02/24 11:16:45;;;;;;;0.28;0.20;;;10.00;97.20;;;;;;5033007;28;20017;-76
2024/02/24 11:19:11;;;;;;;0.20;0.20;;;10.20;96.90;;;;;;5014066;28;20281;-76
2024/02/24 11:22:02;;;;;;;0.63;0.25;;;10.40;96.90;;;;;;5027476;28;20026;-76
2024/02/24 11:24:36;;;;;;;2.63;0.38;;;10.70;96.50;;;;;;5007640;28;20053;-74
2024/02/24 11:27:02;;;;;;;0.30;0.28;;;10.90;96.30;;;;;;5032203;28;20031;-77
2024/02/24 11:29:35;;;;;;;2.08;0.22;;;11.10;95.80;;;;;;5040470;28;20049;-74
2024/02/24 11:32:12;;;;;;;0.77;0.40;;;11.00;94.70;;;;;;5052040;28;20108;-74
2024/02/24 11:34:42;;;;;;;0.98;0.60;;;11.00;94.60;;;;;;5056378;28;20039;-75
2024/02/24 11:37:10;;;;;;;0.68;0.30;;;10.90;94.00;;;;;;5057259;28;20045;-74
2024/02/24 11:39:39;;;;;;;1.17;0.80;;;10.60;94.20;;;;;;5051582;28;20031;-75
2024/02/24 11:42:06;;;;;;;1.73;0.50;;;10.40;94.70;;;;;;5033074;28;20039;-76
2024/02/24 11:44:32;;;;;;;0.60;0.35;;;10.40;95.00;;;;;;5036767;28;20256;-75
2024/02/24 11:46:58;;;;;;;0.55;0.30;;;10.20;95.20;;;;;;5037499;28;20028;-75
2024/02/24 11:49:24;;;;;;;1.33;0.50;;;10.20;95.10;;;;;;5055055;28;20029;-75
2024/02/24 11:51:51;;;;;;;1.27;0.38;;;10.10;95.30;;;;;;5033482;28;20082;-75
2024/02/24 11:54:18;;;;;;;0.82;0.50;;;10.20;95.80;;;;;;5020042;28;20040;-76
2024/02/24 11:56:45;;;;;;;1.63;0.22;;;10.20;96.00;;;;;;5051772;28;20017;-76
2024/02/24 11:59:11;;;;;;;2.25;0.22;;;10.20;96.30;;;;;;5050886;28;20638;-76
2024/02/24 12:01:37;;;;;;;0.10;0.10;;;10.20;96.00;;;;;;5033990;28;20051;-76
2024/02/24 12:04:03;;;;;;;0.55;0.17;;;10.20;95.50;;;;;;5030489;28;20511;-75
2024/02/24 12:06:31;;;;;;;0.47;0.20;;;10.10;95.70;;;;;;5052080;28;20028;-76
2024/02/24 12:08:58;;;;;;;1.02;0.30;;;10.10;95.70;;;;;;5007161;28;20029;-76
2024/02/24 12:11:25;;;;;;;0.57;0.25;;;10.10;95.70;;;;;;5045503;28;20036;-77
2024/02/24 12:13:54;;;;;;;2.22;0.20;;;10.10;95.60;;;;;;5051358;28;20047;-75
2024/02/24 12:16:21;;;;;;;1.20;0.30;;;10.00;95.30;;;;;;5028998;28;20017;-76
2024/02/24 12:18:48;;;;;;;1.00;0.30;;;10.10;95.10;;;;;;5051811;28;20118;-76
2024/02/24 12:21:14;;;;;;;1.48;0.25;;;10.10;95.10;;;;;;5045956;28;20101;-75
2024/02/24 12:23:41;;;;;;;1.30;0.57;;;10.30;95.60;;;;;;5051053;28;20381;-76
2024/02/24 12:26:17;;;;;;;0.20;0.13;;;10.50;94.40;;;;;;5049322;28;20029;-75
2024/02/24 12:28:47;;;;;;;0.38;0.30;;;10.60;94.20;;;;;;5048524;28;20052;-76
2024/02/24 12:31:14;;;;;;;3.05;0.32;;;10.60;94.10;;;;;;5010166;28;20468;-75
2024/02/24 12:33:42;;;;;;;2.25;0.28;;;10.60;94.60;;;;;;4998089;28;20025;-76
2024/02/24 12:36:11;;;;;;;0.20;0.20;;;10.50;94.40;;;;;;4990136;28;20046;-76
2024/02/24 12:38:38;;;;;;;0.77;0.20;;;10.50;94.10;;;;;;5009241;28;20030;-75
2024/02/24 12:41:12;;;;;;;0.43;0.30;;;10.60;94.20;;;;;;5006955;28;20360;-76
2024/02/24 12:43:39;;;;;;;1.92;0.40;;;10.60;94.40;;;;;;5009357;28;20401;-75
2024/02/24 12:46:07;;;;;;;0.32;0.20;;;10.70;94.00;;;;;;5007431;28;20041;-77
2024/02/24 12:48:33;;;;;;;1.95;0.50;;;10.90;93.60;;;;;;5009103;28;20029;-76
2024/02/24 12:50:59;;;;;;;1.05;0.38;;;11.10;93.50;;;;;;5006949;28;20037;-77
2024/02/24 12:53:26;;;;;;;0.50;0.20;;;11.20;93.50;;;;;;4992659;28;20022;-75
2024/02/24 12:55:55;;;;;;;0.45;0.30;;;11.30;92.80;;;;;;5012412;28;20038;-75